Archival Weather

Tokyo Intl

Tokyo, Japan (RJTT)

Report from: Tuesday, November 21, 2023 8:30 PM JST
Current time: Saturday, March 2, 2024 7:33 PM JST

Current weather – Weather history – Daily summaries
Weather forecast

Temperature15.0°C (59.0°F)
Dew point12.0°C (53.6°F)
Winds 3 kts (1.5 m/s, 3.5 mph) Vrb
Winds variableWinds variable from West-Northwest (300°) to Northeast (40°)
Visibility6.2 mi. (10 km)
Clouds Few clouds 3,500 ft. (1,067 m)
Scattered clouds 5,000 ft. (1,524 m)
Altimeter30.15 in.Hg (1021 mB)
Relative humidity82 %
Density altitude-65 ft. (-20 m)
Remarks No significant changes expected in the next two hours
Flight conditions Visual Meteorological Conditions
Raw dataRJTT 211130Z 35003KT 300V040 9999 FEW035 SCT050 15/12 Q1021 NOSIG RMK 2SC035 3SC050 A3016
An error has occurred. This application may no longer respond until reloaded. Reload 🗙